sensor_id;sensor_type;location;lat;lon;timestamp;P1;durP1;ratioP1;P2;durP2;ratioP2
16957;SDS011;8595;52.542;11.974;2023-03-02T00:00:52;24.80;;;16.50;;
16957;SDS011;8595;52.542;11.974;2023-03-02T00:03:22;27.93;;;16.20;;
16957;SDS011;8595;52.542;11.974;2023-03-02T00:05:49;28.27;;;17.13;;
16957;SDS011;8595;52.542;11.974;2023-03-02T00:08:16;27.70;;;15.67;;
16957;SDS011;8595;52.542;11.974;2023-03-02T00:10:45;29.27;;;18.13;;
16957;SDS011;8595;52.542;11.974;2023-03-02T00:13:12;29.00;;;17.70;;
16957;SDS011;8595;52.542;11.974;2023-03-02T00:15:39;29.47;;;17.23;;
16957;SDS011;8595;52.542;11.974;2023-03-02T00:18:06;30.63;;;18.07;;
16957;SDS011;8595;52.542;11.974;2023-03-02T00:20:34;31.17;;;15.90;;
16957;SDS011;8595;52.542;11.974;2023-03-02T00:23:01;30.73;;;17.53;;
16957;SDS011;8595;52.542;11.974;2023-03-02T00:25:28;32.93;;;17.70;;
16957;SDS011;8595;52.542;11.974;2023-03-02T00:27:56;30.13;;;18.37;;
16957;SDS011;8595;52.542;11.974;2023-03-02T00:30:22;30.47;;;17.93;;
16957;SDS011;8595;52.542;11.974;2023-03-02T00:32:49;34.10;;;18.63;;
16957;SDS011;8595;52.542;11.974;2023-03-02T00:35:16;35.73;;;18.60;;
16957;SDS011;8595;52.542;11.974;2023-03-02T00:37:44;33.57;;;20.07;;
16957;SDS011;8595;52.542;11.974;2023-03-02T00:40:11;31.23;;;19.37;;
16957;SDS011;8595;52.542;11.974;2023-03-02T00:42:38;36.30;;;21.17;;
16957;SDS011;8595;52.542;11.974;2023-03-02T00:45:05;36.03;;;20.13;;
16957;SDS011;8595;52.542;11.974;2023-03-02T00:47:33;44.73;;;21.93;;
16957;SDS011;8595;52.542;11.974;2023-03-02T00:50:01;35.87;;;20.20;;
16957;SDS011;8595;52.542;11.974;2023-03-02T00:52:28;35.93;;;20.70;;
16957;SDS011;8595;52.542;11.974;2023-03-02T00:54:57;41.30;;;22.17;;
16957;SDS011;8595;52.542;11.974;2023-03-02T00:57:24;39.77;;;23.60;;
16957;SDS011;8595;52.542;11.974;2023-03-02T00:59:51;40.33;;;22.07;;
16957;SDS011;8595;52.542;11.974;2023-03-02T01:02:17;41.10;;;22.83;;
16957;SDS011;8595;52.542;11.974;2023-03-02T01:04:45;42.73;;;24.07;;
16957;SDS011;8595;52.542;11.974;2023-03-02T01:07:14;44.37;;;25.03;;
16957;SDS011;8595;52.542;11.974;2023-03-02T01:09:42;44.77;;;23.57;;
16957;SDS011;8595;52.542;11.974;2023-03-02T01:12:11;44.03;;;24.17;;
16957;SDS011;8595;52.542;11.974;2023-03-02T01:14:39;43.87;;;24.83;;
16957;SDS011;8595;52.542;11.974;2023-03-02T01:17:07;37.90;;;22.27;;
16957;SDS011;8595;52.542;11.974;2023-03-02T01:19:35;46.77;;;24.33;;
16957;SDS011;8595;52.542;11.974;2023-03-02T01:22:01;43.27;;;24.40;;
16957;SDS011;8595;52.542;11.974;2023-03-02T01:24:28;43.67;;;23.07;;
16957;SDS011;8595;52.542;11.974;2023-03-02T01:27:03;42.13;;;22.53;;
16957;SDS011;8595;52.542;11.974;2023-03-02T01:29:31;39.60;;;23.37;;
16957;SDS011;8595;52.542;11.974;2023-03-02T01:31:57;46.77;;;24.40;;
16957;SDS011;8595;52.542;11.974;2023-03-02T01:34:24;46.63;;;24.93;;
16957;SDS011;8595;52.542;11.974;2023-03-02T01:36:51;39.67;;;23.57;;
16957;SDS011;8595;52.542;11.974;2023-03-02T01:39:18;40.37;;;23.40;;
16957;SDS011;8595;52.542;11.974;2023-03-02T01:41:46;47.00;;;25.20;;
16957;SDS011;8595;52.542;11.974;2023-03-02T01:47:11;48.30;;;24.97;;
16957;SDS011;8595;52.542;11.974;2023-03-02T01:49:43;42.93;;;23.13;;
16957;SDS011;8595;52.542;11.974;2023-03-02T01:52:13;46.27;;;23.27;;
16957;SDS011;8595;52.542;11.974;2023-03-02T01:54:41;44.70;;;23.77;;
16957;SDS011;8595;52.542;11.974;2023-03-02T01:57:14;58.13;;;29.57;;
16957;SDS011;8595;52.542;11.974;2023-03-02T01:59:46;64.50;;;31.73;;
16957;SDS011;8595;52.542;11.974;2023-03-02T02:02:15;54.87;;;27.10;;
16957;SDS011;8595;52.542;11.974;2023-03-02T02:04:42;55.67;;;28.17;;
16957;SDS011;8595;52.542;11.974;2023-03-02T02:07:16;57.00;;;28.03;;
16957;SDS011;8595;52.542;11.974;2023-03-02T02:09:46;58.73;;;29.60;;
16957;SDS011;8595;52.542;11.974;2023-03-02T02:12:17;68.40;;;33.03;;
16957;SDS011;8595;52.542;11.974;2023-03-02T02:14:46;68.37;;;29.23;;
16957;SDS011;8595;52.542;11.974;2023-03-02T02:17:14;72.97;;;33.47;;
16957;SDS011;8595;52.542;11.974;2023-03-02T02:19:46;134.57;;;36.27;;
16957;SDS011;8595;52.542;11.974;2023-03-02T02:22:25;139.80;;;36.90;;
16957;SDS011;8595;52.542;11.974;2023-03-02T02:25:11;135.83;;;35.47;;
16957;SDS011;8595;52.542;11.974;2023-03-02T02:27:48;199.37;;;37.53;;
16957;SDS011;8595;52.542;11.974;2023-03-02T02:30:15;229.60;;;41.53;;
16957;SDS011;8595;52.542;11.974;2023-03-02T02:32:43;221.93;;;40.57;;
16957;SDS011;8595;52.542;11.974;2023-03-02T02:35:13;264.90;;;44.80;;
16957;SDS011;8595;52.542;11.974;2023-03-02T02:37:44;303.70;;;47.23;;
16957;SDS011;8595;52.542;11.974;2023-03-02T02:40:14;557.50;;;65.47;;
16957;SDS011;8595;52.542;11.974;2023-03-02T02:43:04;253.47;;;44.27;;
16957;SDS011;8595;52.542;11.974;2023-03-02T02:45:32;417.30;;;55.80;;
16957;SDS011;8595;52.542;11.974;2023-03-02T02:48:00;178.47;;;41.30;;
16957;SDS011;8595;52.542;11.974;2023-03-02T02:50:27;304.40;;;48.17;;
16957;SDS011;8595;52.542;11.974;2023-03-02T02:52:59;146.27;;;38.30;;
16957;SDS011;8595;52.542;11.974;2023-03-02T02:55:28;253.67;;;45.30;;
16957;SDS011;8595;52.542;11.974;2023-03-02T02:57:57;171.23;;;38.57;;
16957;SDS011;8595;52.542;11.974;2023-03-02T03:00:27;296.17;;;42.40;;
16957;SDS011;8595;52.542;11.974;2023-03-02T03:02:56;202.20;;;39.93;;
16957;SDS011;8595;52.542;11.974;2023-03-02T03:05:31;417.67;;;50.13;;
16957;SDS011;8595;52.542;11.974;2023-03-02T03:08:07;190.93;;;37.33;;
16957;SDS011;8595;52.542;11.974;2023-03-02T03:10:54;138.60;;;32.90;;
16957;SDS011;8595;52.542;11.974;2023-03-02T03:13:22;228.13;;;39.97;;
16957;SDS011;8595;52.542;11.974;2023-03-02T03:15:51;300.43;;;45.23;;
16957;SDS011;8595;52.542;11.974;2023-03-02T03:18:21;175.13;;;40.07;;
16957;SDS011;8595;52.542;11.974;2023-03-02T03:20:48;182.67;;;36.67;;
16957;SDS011;8595;52.542;11.974;2023-03-02T03:23:15;336.87;;;46.47;;
16957;SDS011;8595;52.542;11.974;2023-03-02T03:25:42;144.50;;;37.07;;
16957;SDS011;8595;52.542;11.974;2023-03-02T03:28:14;141.87;;;34.47;;
16957;SDS011;8595;52.542;11.974;2023-03-02T03:30:43;198.80;;;41.40;;
16957;SDS011;8595;52.542;11.974;2023-03-02T03:33:11;109.07;;;34.83;;
16957;SDS011;8595;52.542;11.974;2023-03-02T03:35:38;122.77;;;33.03;;
16957;SDS011;8595;52.542;11.974;2023-03-02T03:38:05;167.27;;;37.20;;
16957;SDS011;8595;52.542;11.974;2023-03-02T03:40:33;155.83;;;33.87;;
16957;SDS011;8595;52.542;11.974;2023-03-02T03:42:59;282.40;;;40.27;;
16957;SDS011;8595;52.542;11.974;2023-03-02T03:45:26;186.03;;;36.93;;
16957;SDS011;8595;52.542;11.974;2023-03-02T03:47:53;298.73;;;43.97;;
16957;SDS011;8595;52.542;11.974;2023-03-02T03:50:23;159.30;;;36.57;;
16957;SDS011;8595;52.542;11.974;2023-03-02T03:52:50;417.37;;;51.47;;
16957;SDS011;8595;52.542;11.974;2023-03-02T03:55:19;246.63;;;42.73;;
16957;SDS011;8595;52.542;11.974;2023-03-02T03:57:46;326.30;;;44.80;;
16957;SDS011;8595;52.542;11.974;2023-03-02T04:00:13;218.00;;;37.33;;
16957;SDS011;8595;52.542;11.974;2023-03-02T04:02:42;242.87;;;36.93;;
16957;SDS011;8595;52.542;11.974;2023-03-02T04:05:09;190.97;;;37.10;;
16957;SDS011;8595;52.542;11.974;2023-03-02T04:07:38;106.03;;;31.73;;
16957;SDS011;8595;52.542;11.974;2023-03-02T04:10:08;118.83;;;34.47;;
16957;SDS011;8595;52.542;11.974;2023-03-02T04:12:37;107.10;;;30.67;;
16957;SDS011;8595;52.542;11.974;2023-03-02T04:15:05;81.43;;;32.07;;
16957;SDS011;8595;52.542;11.974;2023-03-02T04:17:33;224.13;;;37.60;;
16957;SDS011;8595;52.542;11.974;2023-03-02T04:20:00;192.00;;;34.97;;
16957;SDS011;8595;52.542;11.974;2023-03-02T04:22:29;129.57;;;30.70;;
16957;SDS011;8595;52.542;11.974;2023-03-02T04:24:59;185.70;;;35.70;;
16957;SDS011;8595;52.542;11.974;2023-03-02T04:27:26;141.03;;;31.80;;
16957;SDS011;8595;52.542;11.974;2023-03-02T04:29:52;155.10;;;32.30;;
16957;SDS011;8595;52.542;11.974;2023-03-02T04:32:20;179.43;;;36.20;;
16957;SDS011;8595;52.542;11.974;2023-03-02T04:34:46;121.83;;;31.07;;
16957;SDS011;8595;52.542;11.974;2023-03-02T04:37:13;199.67;;;34.07;;
16957;SDS011;8595;52.542;11.974;2023-03-02T04:39:40;220.53;;;32.03;;
16957;SDS011;8595;52.542;11.974;2023-03-02T04:42:10;214.33;;;36.70;;
16957;SDS011;8595;52.542;11.974;2023-03-02T04:44:37;204.30;;;34.87;;
16957;SDS011;8595;52.542;11.974;2023-03-02T04:47:03;125.00;;;29.90;;
16957;SDS011;8595;52.542;11.974;2023-03-02T04:49:30;232.00;;;34.53;;
16957;SDS011;8595;52.542;11.974;2023-03-02T04:51:57;210.63;;;35.13;;
16957;SDS011;8595;52.542;11.974;2023-03-02T04:54:26;140.60;;;32.00;;
16957;SDS011;8595;52.542;11.974;2023-03-02T04:56:53;158.67;;;34.27;;
16957;SDS011;8595;52.542;11.974;2023-03-02T04:59:22;113.77;;;27.80;;
16957;SDS011;8595;52.542;11.974;2023-03-02T05:01:51;282.57;;;37.87;;
16957;SDS011;8595;52.542;11.974;2023-03-02T05:04:18;232.27;;;31.10;;
16957;SDS011;8595;52.542;11.974;2023-03-02T05:06:45;243.47;;;36.67;;
16957;SDS011;8595;52.542;11.974;2023-03-02T05:09:12;486.80;;;46.77;;
16957;SDS011;8595;52.542;11.974;2023-03-02T05:11:40;196.20;;;30.60;;
16957;SDS011;8595;52.542;11.974;2023-03-02T05:14:08;179.70;;;35.37;;
16957;SDS011;8595;52.542;11.974;2023-03-02T05:16:39;203.77;;;36.27;;
16957;SDS011;8595;52.542;11.974;2023-03-02T05:19:09;154.57;;;35.23;;
16957;SDS011;8595;52.542;11.974;2023-03-02T05:21:37;144.50;;;30.97;;
16957;SDS011;8595;52.542;11.974;2023-03-02T05:24:04;167.60;;;34.47;;
16957;SDS011;8595;52.542;11.974;2023-03-02T05:26:33;103.37;;;31.93;;
16957;SDS011;8595;52.542;11.974;2023-03-02T05:29:00;141.10;;;31.17;;
16957;SDS011;8595;52.542;11.974;2023-03-02T05:31:29;80.53;;;31.80;;
16957;SDS011;8595;52.542;11.974;2023-03-02T05:34:00;247.70;;;39.43;;
16957;SDS011;8595;52.542;11.974;2023-03-02T05:36:27;279.70;;;42.17;;
16957;SDS011;8595;52.542;11.974;2023-03-02T05:38:54;140.37;;;34.33;;
16957;SDS011;8595;52.542;11.974;2023-03-02T05:41:21;157.03;;;31.93;;
16957;SDS011;8595;52.542;11.974;2023-03-02T05:43:48;225.63;;;37.97;;
16957;SDS011;8595;52.542;11.974;2023-03-02T05:46:14;71.77;;;30.53;;
16957;SDS011;8595;52.542;11.974;2023-03-02T05:48:42;227.47;;;37.37;;
16957;SDS011;8595;52.542;11.974;2023-03-02T05:51:10;136.03;;;34.00;;
16957;SDS011;8595;52.542;11.974;2023-03-02T05:53:37;146.73;;;31.87;;
16957;SDS011;8595;52.542;11.974;2023-03-02T05:56:04;149.87;;;29.80;;
16957;SDS011;8595;52.542;11.974;2023-03-02T05:58:32;80.43;;;27.87;;
16957;SDS011;8595;52.542;11.974;2023-03-02T06:00:59;152.73;;;30.47;;
16957;SDS011;8595;52.542;11.974;2023-03-02T06:03:27;242.63;;;37.13;;
16957;SDS011;8595;52.542;11.974;2023-03-02T06:05:54;162.83;;;30.83;;
16957;SDS011;8595;52.542;11.974;2023-03-02T06:08:22;183.43;;;31.90;;
16957;SDS011;8595;52.542;11.974;2023-03-02T06:10:49;229.63;;;35.03;;
16957;SDS011;8595;52.542;11.974;2023-03-02T06:13:15;208.63;;;36.03;;
16957;SDS011;8595;52.542;11.974;2023-03-02T06:15:42;171.20;;;31.70;;
16957;SDS011;8595;52.542;11.974;2023-03-02T06:18:09;122.40;;;29.77;;
16957;SDS011;8595;52.542;11.974;2023-03-02T06:20:36;183.67;;;36.73;;
16957;SDS011;8595;52.542;11.974;2023-03-02T06:23:03;147.70;;;31.93;;
16957;SDS011;8595;52.542;11.974;2023-03-02T06:25:31;152.57;;;31.50;;
16957;SDS011;8595;52.542;11.974;2023-03-02T06:28:00;132.07;;;29.13;;
16957;SDS011;8595;52.542;11.974;2023-03-02T06:30:26;126.00;;;30.27;;
16957;SDS011;8595;52.542;11.974;2023-03-02T06:32:53;212.40;;;36.27;;
16957;SDS011;8595;52.542;11.974;2023-03-02T06:35:20;130.27;;;32.93;;
16957;SDS011;8595;52.542;11.974;2023-03-02T06:37:48;196.37;;;36.30;;
16957;SDS011;8595;52.542;11.974;2023-03-02T06:40:15;223.03;;;34.73;;
16957;SDS011;8595;52.542;11.974;2023-03-02T06:42:43;109.53;;;30.33;;
16957;SDS011;8595;52.542;11.974;2023-03-02T06:45:10;239.27;;;35.33;;
16957;SDS011;8595;52.542;11.974;2023-03-02T06:47:37;210.17;;;32.20;;
16957;SDS011;8595;52.542;11.974;2023-03-02T06:50:04;128.17;;;28.03;;
16957;SDS011;8595;52.542;11.974;2023-03-02T06:52:33;246.13;;;34.80;;
16957;SDS011;8595;52.542;11.974;2023-03-02T06:55:00;292.40;;;39.70;;
16957;SDS011;8595;52.542;11.974;2023-03-02T06:57:27;180.30;;;31.73;;
16957;SDS011;8595;52.542;11.974;2023-03-02T06:59:59;236.53;;;33.90;;
16957;SDS011;8595;52.542;11.974;2023-03-02T07:02:26;159.47;;;30.03;;
16957;SDS011;8595;52.542;11.974;2023-03-02T07:04:53;136.37;;;29.27;;
16957;SDS011;8595;52.542;11.974;2023-03-02T07:07:20;216.03;;;35.43;;
16957;SDS011;8595;52.542;11.974;2023-03-02T07:09:47;104.47;;;27.90;;
16957;SDS011;8595;52.542;11.974;2023-03-02T07:12:14;190.30;;;32.53;;
16957;SDS011;8595;52.542;11.974;2023-03-02T07:14:44;195.33;;;34.77;;
16957;SDS011;8595;52.542;11.974;2023-03-02T07:17:12;126.23;;;29.10;;
16957;SDS011;8595;52.542;11.974;2023-03-02T07:19:40;140.60;;;32.17;;
16957;SDS011;8595;52.542;11.974;2023-03-02T07:22:07;138.47;;;29.73;;
16957;SDS011;8595;52.542;11.974;2023-03-02T07:24:34;194.63;;;34.13;;
16957;SDS011;8595;52.542;11.974;2023-03-02T07:27:01;94.53;;;28.63;;
16957;SDS011;8595;52.542;11.974;2023-03-02T07:29:31;240.33;;;36.63;;
16957;SDS011;8595;52.542;11.974;2023-03-02T07:31:58;85.30;;;27.33;;
16957;SDS011;8595;52.542;11.974;2023-03-02T07:34:26;112.17;;;29.13;;
16957;SDS011;8595;52.542;11.974;2023-03-02T07:36:53;148.40;;;29.63;;
16957;SDS011;8595;52.542;11.974;2023-03-02T07:39:20;135.73;;;29.43;;
16957;SDS011;8595;52.542;11.974;2023-03-02T07:41:50;171.93;;;33.83;;
16957;SDS011;8595;52.542;11.974;2023-03-02T07:44:16;122.40;;;31.43;;
16957;SDS011;8595;52.542;11.974;2023-03-02T07:46:43;111.97;;;29.83;;
16957;SDS011;8595;52.542;11.974;2023-03-02T07:49:10;219.20;;;35.13;;
16957;SDS011;8595;52.542;11.974;2023-03-02T07:51:38;82.67;;;26.10;;
16957;SDS011;8595;52.542;11.974;2023-03-02T07:54:05;173.93;;;30.87;;
16957;SDS011;8595;52.542;11.974;2023-03-02T07:56:32;169.33;;;30.93;;
16957;SDS011;8595;52.542;11.974;2023-03-02T07:58:59;73.20;;;25.80;;
16957;SDS011;8595;52.542;11.974;2023-03-02T08:01:25;84.60;;;23.77;;
16957;SDS011;8595;52.542;11.974;2023-03-02T08:03:52;96.97;;;25.13;;
16957;SDS011;8595;52.542;11.974;2023-03-02T08:06:19;247.07;;;34.57;;
16957;SDS011;8595;52.542;11.974;2023-03-02T08:08:49;102.47;;;25.30;;
16957;SDS011;8595;52.542;11.974;2023-03-02T08:11:16;86.80;;;27.10;;
16957;SDS011;8595;52.542;11.974;2023-03-02T08:13:46;108.33;;;26.67;;
16957;SDS011;8595;52.542;11.974;2023-03-02T08:16:14;73.73;;;25.67;;
16957;SDS011;8595;52.542;11.974;2023-03-02T08:18:41;104.03;;;25.93;;
16957;SDS011;8595;52.542;11.974;2023-03-02T08:21:12;64.67;;;24.77;;
16957;SDS011;8595;52.542;11.974;2023-03-02T08:23:40;50.60;;;23.10;;
16957;SDS011;8595;52.542;11.974;2023-03-02T08:26:09;98.63;;;25.27;;
16957;SDS011;8595;52.542;11.974;2023-03-02T08:28:36;269.07;;;32.53;;
16957;SDS011;8595;52.542;11.974;2023-03-02T08:31:04;132.03;;;28.03;;
16957;SDS011;8595;52.542;11.974;2023-03-02T08:33:32;93.20;;;26.00;;
16957;SDS011;8595;52.542;11.974;2023-03-02T08:36:00;85.27;;;25.80;;
16957;SDS011;8595;52.542;11.974;2023-03-02T08:38:31;133.30;;;33.50;;
16957;SDS011;8595;52.542;11.974;2023-03-02T08:41:01;107.60;;;23.57;;
16957;SDS011;8595;52.542;11.974;2023-03-02T08:43:32;78.30;;;25.67;;
16957;SDS011;8595;52.542;11.974;2023-03-02T08:45:59;159.80;;;30.43;;
16957;SDS011;8595;52.542;11.974;2023-03-02T08:48:27;121.27;;;31.57;;
16957;SDS011;8595;52.542;11.974;2023-03-02T08:50:55;83.13;;;28.97;;
16957;SDS011;8595;52.542;11.974;2023-03-02T08:53:23;84.47;;;24.80;;
16957;SDS011;8595;52.542;11.974;2023-03-02T08:55:50;96.57;;;26.70;;
16957;SDS011;8595;52.542;11.974;2023-03-02T08:58:20;100.47;;;27.10;;
16957;SDS011;8595;52.542;11.974;2023-03-02T09:00:49;39.73;;;25.13;;
16957;SDS011;8595;52.542;11.974;2023-03-02T09:03:16;48.07;;;20.97;;
16957;SDS011;8595;52.542;11.974;2023-03-02T09:05:43;55.00;;;23.10;;
16957;SDS011;8595;52.542;11.974;2023-03-02T09:08:09;49.30;;;22.87;;
16957;SDS011;8595;52.542;11.974;2023-03-02T09:10:36;46.77;;;24.77;;
16957;SDS011;8595;52.542;11.974;2023-03-02T09:13:11;54.37;;;22.23;;
16957;SDS011;8595;52.542;11.974;2023-03-02T09:15:38;57.60;;;21.87;;
16957;SDS011;8595;52.542;11.974;2023-03-02T09:18:06;34.70;;;20.67;;
16957;SDS011;8595;52.542;11.974;2023-03-02T09:20:33;74.17;;;24.73;;
16957;SDS011;8595;52.542;11.974;2023-03-02T09:23:02;37.33;;;24.27;;
16957;SDS011;8595;52.542;11.974;2023-03-02T09:25:28;43.10;;;19.83;;
16957;SDS011;8595;52.542;11.974;2023-03-02T09:27:55;46.00;;;24.57;;
16957;SDS011;8595;52.542;11.974;2023-03-02T09:30:25;37.87;;;22.57;;
16957;SDS011;8595;52.542;11.974;2023-03-02T09:32:58;47.77;;;23.90;;
16957;SDS011;8595;52.542;11.974;2023-03-02T09:35:26;82.60;;;23.83;;
16957;SDS011;8595;52.542;11.974;2023-03-02T09:37:52;71.93;;;26.30;;
16957;SDS011;8595;52.542;11.974;2023-03-02T09:40:20;49.47;;;23.70;;
16957;SDS011;8595;52.542;11.974;2023-03-02T09:42:53;55.40;;;22.50;;
16957;SDS011;8595;52.542;11.974;2023-03-02T09:45:36;83.00;;;24.27;;
16957;SDS011;8595;52.542;11.974;2023-03-02T09:48:14;115.37;;;27.73;;
16957;SDS011;8595;52.542;11.974;2023-03-02T09:50:50;47.67;;;23.57;;
16957;SDS011;8595;52.542;11.974;2023-03-02T09:53:26;51.27;;;22.60;;
16957;SDS011;8595;52.542;11.974;2023-03-02T09:56:02;43.37;;;21.43;;
16957;SDS011;8595;52.542;11.974;2023-03-02T09:58:31;128.30;;;26.87;;
16957;SDS011;8595;52.542;11.974;2023-03-02T10:01:02;58.93;;;23.80;;
16957;SDS011;8595;52.542;11.974;2023-03-02T10:03:40;74.50;;;23.60;;
16957;SDS011;8595;52.542;11.974;2023-03-02T10:06:14;47.37;;;22.63;;
16957;SDS011;8595;52.542;11.974;2023-03-02T10:08:40;49.67;;;23.67;;
16957;SDS011;8595;52.542;11.974;2023-03-02T10:11:09;59.83;;;25.23;;
16957;SDS011;8595;52.542;11.974;2023-03-02T10:13:42;48.37;;;26.93;;
16957;SDS011;8595;52.542;11.974;2023-03-02T10:16:15;48.13;;;22.50;;
16957;SDS011;8595;52.542;11.974;2023-03-02T10:18:58;39.27;;;23.00;;
16957;SDS011;8595;52.542;11.974;2023-03-02T10:21:34;40.97;;;24.23;;
16957;SDS011;8595;52.542;11.974;2023-03-02T10:24:06;40.47;;;24.20;;
16957;SDS011;8595;52.542;11.974;2023-03-02T10:26:40;44.93;;;22.50;;
16957;SDS011;8595;52.542;11.974;2023-03-02T10:32:10;35.03;;;21.43;;
16957;SDS011;8595;52.542;11.974;2023-03-02T10:34:41;36.30;;;21.70;;
16957;SDS011;8595;52.542;11.974;2023-03-02T10:37:12;48.47;;;23.27;;
16957;SDS011;8595;52.542;11.974;2023-03-02T10:39:41;52.33;;;24.07;;
16957;SDS011;8595;52.542;11.974;2023-03-02T10:42:10;39.47;;;22.77;;
16957;SDS011;8595;52.542;11.974;2023-03-02T10:44:44;43.43;;;23.07;;
16957;SDS011;8595;52.542;11.974;2023-03-02T10:47:22;37.10;;;23.57;;
16957;SDS011;8595;52.542;11.974;2023-03-02T10:49:50;42.90;;;24.77;;
16957;SDS011;8595;52.542;11.974;2023-03-02T10:52:21;38.40;;;23.27;;
16957;SDS011;8595;52.542;11.974;2023-03-02T10:54:59;42.67;;;25.57;;
16957;SDS011;8595;52.542;11.974;2023-03-02T10:57:33;39.00;;;24.20;;
16957;SDS011;8595;52.542;11.974;2023-03-02T11:00:03;41.53;;;25.80;;
16957;SDS011;8595;52.542;11.974;2023-03-02T11:02:47;47.00;;;27.53;;
16957;SDS011;8595;52.542;11.974;2023-03-02T11:05:19;46.70;;;27.03;;
16957;SDS011;8595;52.542;11.974;2023-03-02T11:07:56;48.47;;;27.47;;
16957;SDS011;8595;52.542;11.974;2023-03-02T11:10:25;46.97;;;28.07;;
16957;SDS011;8595;52.542;11.974;2023-03-02T11:12:55;66.37;;;26.33;;
16957;SDS011;8595;52.542;11.974;2023-03-02T11:15:24;54.20;;;24.23;;
16957;SDS011;8595;52.542;11.974;2023-03-02T11:17:53;53.27;;;26.43;;
16957;SDS011;8595;52.542;11.974;2023-03-02T11:20:29;40.67;;;23.63;;
16957;SDS011;8595;52.542;11.974;2023-03-02T11:23:09;51.93;;;23.77;;
16957;SDS011;8595;52.542;11.974;2023-03-02T11:25:43;43.17;;;25.23;;
16957;SDS011;8595;52.542;11.974;2023-03-02T11:28:18;48.17;;;24.83;;
16957;SDS011;8595;52.542;11.974;2023-03-02T11:31:04;44.13;;;25.50;;
16957;SDS011;8595;52.542;11.974;2023-03-02T11:33:38;47.03;;;26.33;;
16957;SDS011;8595;52.542;11.974;2023-03-02T11:38:47;43.73;;;24.83;;
16957;SDS011;8595;52.542;11.974;2023-03-02T11:41:22;44.27;;;27.07;;
16957;SDS011;8595;52.542;11.974;2023-03-02T11:43:54;46.30;;;24.87;;
16957;SDS011;8595;52.542;11.974;2023-03-02T11:46:24;35.53;;;21.17;;
16957;SDS011;8595;52.542;11.974;2023-03-02T11:48:56;50.67;;;28.00;;
16957;SDS011;8595;52.542;11.974;2023-03-02T11:51:32;48.83;;;26.17;;
16957;SDS011;8595;52.542;11.974;2023-03-02T11:54:04;46.30;;;26.30;;
16957;SDS011;8595;52.542;11.974;2023-03-02T11:56:40;54.43;;;30.80;;
16957;SDS011;8595;52.542;11.974;2023-03-02T11:59:09;47.17;;;27.90;;
16957;SDS011;8595;52.542;11.974;2023-03-02T12:01:40;49.97;;;30.20;;
16957;SDS011;8595;52.542;11.974;2023-03-02T12:04:22;61.90;;;34.10;;
16957;SDS011;8595;52.542;11.974;2023-03-02T12:06:52;55.07;;;30.23;;
16957;SDS011;8595;52.542;11.974;2023-03-02T12:09:34;50.73;;;29.63;;
16957;SDS011;8595;52.542;11.974;2023-03-02T12:12:22;45.00;;;27.50;;
16957;SDS011;8595;52.542;11.974;2023-03-02T12:14:58;48.23;;;26.77;;
16957;SDS011;8595;52.542;11.974;2023-03-02T12:17:29;51.43;;;28.33;;
16957;SDS011;8595;52.542;11.974;2023-03-02T12:20:08;44.13;;;26.50;;
16957;SDS011;8595;52.542;11.974;2023-03-02T12:22:48;44.27;;;25.93;;
16957;SDS011;8595;52.542;11.974;2023-03-02T12:25:26;47.07;;;26.73;;
16957;SDS011;8595;52.542;11.974;2023-03-02T12:28:03;47.63;;;28.00;;
16957;SDS011;8595;52.542;11.974;2023-03-02T12:30:30;49.27;;;30.23;;
16957;SDS011;8595;52.542;11.974;2023-03-02T12:32:58;52.03;;;29.67;;
16957;SDS011;8595;52.542;11.974;2023-03-02T12:35:30;49.03;;;29.90;;
16957;SDS011;8595;52.542;11.974;2023-03-02T12:37:59;48.67;;;29.47;;
16957;SDS011;8595;52.542;11.974;2023-03-02T12:40:38;44.50;;;26.07;;
16957;SDS011;8595;52.542;11.974;2023-03-02T12:48:56;45.33;;;26.20;;
16957;SDS011;8595;52.542;11.974;2023-03-02T12:51:26;49.80;;;28.60;;
16957;SDS011;8595;52.542;11.974;2023-03-02T12:54:03;51.17;;;28.90;;
16957;SDS011;8595;52.542;11.974;2023-03-02T12:56:33;55.63;;;31.67;;
16957;SDS011;8595;52.542;11.974;2023-03-02T12:58:59;57.43;;;32.83;;
16957;SDS011;8595;52.542;11.974;2023-03-02T13:01:27;72.47;;;33.80;;
16957;SDS011;8595;52.542;11.974;2023-03-02T13:03:55;65.43;;;34.23;;
16957;SDS011;8595;52.542;11.974;2023-03-02T13:06:23;67.93;;;35.03;;
16957;SDS011;8595;52.542;11.974;2023-03-02T13:08:53;71.10;;;40.17;;
16957;SDS011;8595;52.542;11.974;2023-03-02T13:11:23;63.30;;;36.40;;
16957;SDS011;8595;52.542;11.974;2023-03-02T13:13:56;70.27;;;38.70;;
16957;SDS011;8595;52.542;11.974;2023-03-02T13:16:25;69.97;;;39.50;;
16957;SDS011;8595;52.542;11.974;2023-03-02T13:18:54;58.70;;;33.17;;
16957;SDS011;8595;52.542;11.974;2023-03-02T13:21:23;56.53;;;31.20;;
16957;SDS011;8595;52.542;11.974;2023-03-02T13:23:55;51.63;;;29.20;;
16957;SDS011;8595;52.542;11.974;2023-03-02T13:26:26;53.27;;;30.27;;
16957;SDS011;8595;52.542;11.974;2023-03-02T13:29:13;47.87;;;27.93;;
16957;SDS011;8595;52.542;11.974;2023-03-02T13:31:52;46.77;;;26.67;;
16957;SDS011;8595;52.542;11.974;2023-03-02T13:34:22;52.70;;;29.43;;
16957;SDS011;8595;52.542;11.974;2023-03-02T13:36:52;45.83;;;25.33;;
16957;SDS011;8595;52.542;11.974;2023-03-02T13:39:26;58.10;;;29.93;;
16957;SDS011;8595;52.542;11.974;2023-03-02T13:41:56;57.37;;;31.87;;
16957;SDS011;8595;52.542;11.974;2023-03-02T13:44:26;53.80;;;29.00;;
16957;SDS011;8595;52.542;11.974;2023-03-02T13:46:54;52.40;;;30.00;;
16957;SDS011;8595;52.542;11.974;2023-03-02T13:49:26;52.80;;;28.33;;
16957;SDS011;8595;52.542;11.974;2023-03-02T13:52:00;55.87;;;29.60;;
16957;SDS011;8595;52.542;11.974;2023-03-02T13:54:29;52.43;;;29.47;;
16957;SDS011;8595;52.542;11.974;2023-03-02T13:56:58;52.60;;;30.00;;
16957;SDS011;8595;52.542;11.974;2023-03-02T13:59:28;46.90;;;27.13;;
16957;SDS011;8595;52.542;11.974;2023-03-02T14:01:56;46.80;;;26.67;;
16957;SDS011;8595;52.542;11.974;2023-03-02T14:04:23;42.93;;;25.20;;
16957;SDS011;8595;52.542;11.974;2023-03-02T14:06:58;41.23;;;23.87;;
16957;SDS011;8595;52.542;11.974;2023-03-02T14:09:24;37.83;;;23.80;;
16957;SDS011;8595;52.542;11.974;2023-03-02T14:11:52;58.07;;;31.23;;
16957;SDS011;8595;52.542;11.974;2023-03-02T14:14:22;40.40;;;24.23;;
16957;SDS011;8595;52.542;11.974;2023-03-02T14:16:54;34.13;;;22.23;;
16957;SDS011;8595;52.542;11.974;2023-03-02T14:19:21;35.43;;;20.63;;
16957;SDS011;8595;52.542;11.974;2023-03-02T14:21:53;34.40;;;19.53;;
16957;SDS011;8595;52.542;11.974;2023-03-02T14:24:22;28.50;;;17.73;;
16957;SDS011;8595;52.542;11.974;2023-03-02T14:26:49;30.83;;;20.00;;
16957;SDS011;8595;52.542;11.974;2023-03-02T14:29:19;28.13;;;17.27;;
16957;SDS011;8595;52.542;11.974;2023-03-02T14:31:48;30.13;;;19.23;;
16957;SDS011;8595;52.542;11.974;2023-03-02T14:34:23;24.83;;;16.03;;
16957;SDS011;8595;52.542;11.974;2023-03-02T14:36:50;27.93;;;15.67;;
16957;SDS011;8595;52.542;11.974;2023-03-02T14:39:20;27.97;;;18.23;;
16957;SDS011;8595;52.542;11.974;2023-03-02T14:41:47;27.93;;;16.10;;
16957;SDS011;8595;52.542;11.974;2023-03-02T14:44:15;27.83;;;16.50;;